createdAt,value
2019-02-26T00:02:38.426Z,6.50
2019-02-26T00:05:21.374Z,6.50
2019-02-26T00:08:02.602Z,6.50
2019-02-26T00:10:43.190Z,6.60
2019-02-26T00:13:24.999Z,6.50
2019-02-26T00:16:08.010Z,6.50
2019-02-26T00:18:49.678Z,6.50
2019-02-26T00:21:31.087Z,6.40
2019-02-26T00:24:00.220Z,6.40
2019-02-26T00:26:29.116Z,6.30
2019-02-26T00:28:59.685Z,6.20
2019-02-26T00:31:30.424Z,6.10
2019-02-26T00:36:29.738Z,5.90
2019-02-26T00:39:00.525Z,5.80
2019-02-26T00:41:31.274Z,5.80
2019-02-26T00:44:01.750Z,5.70
2019-02-26T00:46:32.427Z,5.70
2019-02-26T00:49:03.036Z,5.60
2019-02-26T00:51:31.614Z,5.50
2019-02-26T00:54:01.919Z,5.60
2019-02-26T00:56:31.627Z,5.50
2019-02-26T00:59:01.768Z,5.50
2019-02-26T01:01:30.612Z,5.40
2019-02-26T01:03:59.562Z,5.20
2019-02-26T01:06:28.994Z,5.30
2019-02-26T01:09:01.141Z,5.30
2019-02-26T01:11:30.226Z,5.40
2019-02-26T01:13:59.590Z,5.40
2019-02-26T01:16:28.434Z,5.40
2019-02-26T01:18:57.390Z,5.40
2019-02-26T01:21:28.510Z,5.20
2019-02-26T01:23:58.952Z,5.20
2019-02-26T01:26:27.951Z,5.30
2019-02-26T01:28:58.599Z,5.20
2019-02-26T01:31:29.292Z,5.30
2019-02-26T01:33:58.199Z,5.10
2019-02-26T01:36:27.148Z,5.10
2019-02-26T01:38:56.171Z,5.00
2019-02-26T01:41:27.314Z,4.90
2019-02-26T01:43:56.474Z,4.80
2019-02-26T01:46:25.396Z,4.90
2019-02-26T01:48:55.216Z,4.80
2019-02-26T01:51:26.158Z,4.70
2019-02-26T01:53:55.734Z,4.70
2019-02-26T01:56:24.622Z,4.70
2019-02-26T01:58:56.652Z,4.50
2019-02-26T02:01:26.078Z,4.50
2019-02-26T02:03:56.156Z,4.40
2019-02-26T02:06:25.410Z,4.40
2019-02-26T02:08:55.693Z,4.50
2019-02-26T02:11:28.287Z,4.50
2019-02-26T02:13:55.348Z,4.50
2019-02-26T02:16:26.197Z,4.50
2019-02-26T02:18:55.339Z,4.40
2019-02-26T02:21:26.078Z,4.40
2019-02-26T02:23:56.227Z,4.40
2019-02-26T02:26:25.105Z,4.40
2019-02-26T02:28:53.909Z,4.30
2019-02-26T02:31:24.466Z,4.40
2019-02-26T02:33:53.393Z,4.40
2019-02-26T02:36:23.627Z,4.40
2019-02-26T02:38:52.913Z,4.50
2019-02-26T02:41:22.970Z,4.50
2019-02-26T02:43:51.963Z,4.50
2019-02-26T02:46:20.770Z,4.50
2019-02-26T02:48:49.627Z,4.50
2019-02-26T02:51:18.503Z,4.50
2019-02-26T02:53:47.877Z,4.50
2019-02-26T02:56:18.108Z,4.50
2019-02-26T02:58:49.470Z,4.50
2019-02-26T03:01:20.387Z,4.60
2019-02-26T03:03:50.273Z,4.50
2019-02-26T03:06:18.811Z,4.60
2019-02-26T03:08:48.895Z,4.60
2019-02-26T03:11:18.422Z,4.60
2019-02-26T03:13:48.627Z,4.60
2019-02-26T03:16:19.511Z,4.50
2019-02-26T03:18:48.591Z,4.40
2019-02-26T03:21:19.718Z,4.40
2019-02-26T03:23:48.234Z,4.30
2019-02-26T03:26:17.794Z,4.30
2019-02-26T03:28:49.040Z,4.30
2019-02-26T03:31:18.466Z,4.20
2019-02-26T03:33:47.369Z,4.10
2019-02-26T03:36:17.171Z,4.10
2019-02-26T03:38:49.046Z,4.00
2019-02-26T03:41:22.227Z,4.10
2019-02-26T03:43:48.274Z,4.00
2019-02-26T03:46:17.255Z,4.00
2019-02-26T03:48:46.349Z,4.00
2019-02-26T03:51:17.879Z,4.00
2019-02-26T03:53:45.806Z,3.90
2019-02-26T03:56:15.490Z,4.00
2019-02-26T03:58:45.391Z,4.00
2019-02-26T04:01:18.298Z,4.00
2019-02-26T04:03:45.155Z,4.00
2019-02-26T04:06:13.995Z,4.00
2019-02-26T04:08:46.219Z,4.00
2019-02-26T04:11:14.389Z,4.00
2019-02-26T04:13:46.027Z,4.00
2019-02-26T04:16:14.939Z,3.90
2019-02-26T04:18:43.871Z,3.90
2019-02-26T04:21:14.980Z,3.90
2019-02-26T04:23:44.538Z,3.90
2019-02-26T04:26:45.361Z,4.00
2019-02-26T04:29:46.863Z,3.90
2019-02-26T04:32:52.160Z,3.90
2019-02-26T04:35:38.406Z,3.90
2019-02-26T04:38:31.136Z,3.90
2019-02-26T04:41:15.996Z,3.90
2019-02-26T04:44:22.909Z,4.00
2019-02-26T04:47:11.756Z,3.90
2019-02-26T04:49:42.916Z,3.90
2019-02-26T04:52:14.480Z,3.90
2019-02-26T04:54:42.298Z,3.80
2019-02-26T04:57:11.416Z,3.80
2019-02-26T04:59:41.193Z,3.80
2019-02-26T05:02:11.103Z,3.80
2019-02-26T05:04:41.972Z,3.80
2019-02-26T05:07:13.367Z,3.80
2019-02-26T05:09:41.436Z,3.80
2019-02-26T05:12:10.390Z,3.80
2019-02-26T05:14:39.409Z,3.80
2019-02-26T05:17:08.275Z,3.70
2019-02-26T05:19:39.506Z,3.80
2019-02-26T05:22:08.259Z,3.80
2019-02-26T05:24:38.564Z,3.80
2019-02-26T05:27:19.683Z,3.80
2019-02-26T05:29:49.242Z,3.80
2019-02-26T05:32:18.346Z,3.80
2019-02-26T05:34:48.611Z,3.80
2019-02-26T05:37:18.835Z,3.80
2019-02-26T05:39:49.082Z,3.80
2019-02-26T05:42:18.437Z,3.80
2019-02-26T05:44:47.304Z,3.80
2019-02-26T05:47:18.801Z,3.80
2019-02-26T05:49:46.829Z,3.80
2019-02-26T05:52:15.676Z,3.80
2019-02-26T05:54:44.579Z,3.70
2019-02-26T05:57:25.911Z,3.70
2019-02-26T05:59:46.844Z,3.70
2019-02-26T06:02:18.466Z,3.70
2019-02-26T06:04:47.569Z,3.60
2019-02-26T06:07:19.238Z,3.70
2019-02-26T06:09:48.369Z,3.60
2019-02-26T06:12:17.856Z,3.60
2019-02-26T06:14:46.860Z,3.60
2019-02-26T06:17:17.984Z,3.60
2019-02-26T06:19:48.994Z,3.50
2019-02-26T06:22:20.742Z,3.50
2019-02-26T06:24:48.550Z,3.50
2019-02-26T06:27:19.588Z,3.40
2019-02-26T06:32:59.713Z,3.40
2019-02-26T06:35:46.692Z,3.30
2019-02-26T06:38:35.105Z,3.40
2019-02-26T06:41:23.450Z,3.40
2019-02-26T06:44:11.806Z,3.40
2019-02-26T06:47:00.390Z,3.40
2019-02-26T06:49:50.381Z,3.40
2019-02-26T06:52:40.377Z,3.40
2019-02-26T06:55:29.334Z,3.40
2019-02-26T06:58:19.201Z,3.40
2019-02-26T07:01:09.412Z,3.40
2019-02-26T07:03:57.321Z,3.40
2019-02-26T07:06:45.460Z,3.40
2019-02-26T07:09:52.797Z,3.50
2019-02-26T07:12:43.018Z,3.50
2019-02-26T07:15:31.153Z,3.60
2019-02-26T07:21:55.495Z,3.60
2019-02-26T07:33:15.507Z,3.70
2019-02-26T07:35:57.336Z,3.80
2019-02-26T07:38:41.512Z,3.80
2019-02-26T07:44:00.417Z,3.90
2019-02-26T07:46:48.609Z,4.00
2019-02-26T08:07:37.861Z,4.80
2019-02-26T08:11:04.291Z,5.00
2019-02-26T08:13:54.220Z,5.10
2019-02-26T08:25:19.323Z,5.40
2019-02-26T08:28:01.283Z,5.60
2019-02-26T08:30:44.518Z,5.50
2019-02-26T08:36:28.103Z,5.70
2019-02-26T08:39:08.780Z,5.90
2019-02-26T08:41:52.462Z,5.90
2019-02-26T08:44:33.338Z,6.10
2019-02-26T08:47:16.233Z,6.50
2019-02-26T08:52:33.411Z,6.20
2019-02-26T08:55:24.381Z,6.20
2019-02-26T08:58:12.517Z,6.40
2019-02-26T09:00:41.553Z,6.60
2019-02-26T09:03:11.423Z,6.70
2019-02-26T09:05:41.258Z,6.70
2019-02-26T09:08:12.851Z,6.50
2019-02-26T09:11:00.862Z,6.50
2019-02-26T09:13:49.862Z,6.60
2019-02-26T09:16:38.325Z,6.70
2019-02-26T09:19:27.910Z,6.90
2019-02-26T09:22:19.310Z,7.20
2019-02-26T09:25:06.195Z,7.30
2019-02-26T09:27:54.407Z,7.30
2019-02-26T09:30:23.330Z,7.30
2019-02-26T09:33:11.601Z,7.30
2019-02-26T09:35:59.776Z,7.80
2019-02-26T09:38:49.626Z,8.20
2019-02-26T09:41:40.214Z,8.10
2019-02-26T09:44:29.250Z,7.80
2019-02-26T09:50:17.722Z,7.70
2019-02-26T09:53:06.461Z,7.90
2019-02-26T09:55:54.724Z,8.00
2019-02-26T09:58:45.599Z,8.10
2019-02-26T10:01:14.000Z,8.20
2019-02-26T10:04:05.384Z,8.30
2019-02-26T10:06:53.760Z,8.40
2019-02-26T10:09:48.520Z,8.60
2019-02-26T10:12:34.773Z,8.60
2019-02-26T10:15:23.890Z,8.90
2019-02-26T10:18:32.986Z,9.10
2019-02-26T10:21:21.585Z,9.00
2019-02-26T10:24:04.634Z,9.10
2019-02-26T10:26:49.434Z,9.10
2019-02-26T10:29:32.307Z,9.20
2019-02-26T10:32:13.214Z,9.40
2019-02-26T10:34:54.130Z,9.70
2019-02-26T10:37:36.928Z,9.90
2019-02-26T10:43:09.011Z,9.70
2019-02-26T10:45:52.415Z,9.60
2019-02-26T10:48:32.892Z,9.80
2019-02-26T10:51:16.640Z,10.20
2019-02-26T10:53:57.522Z,10.40
2019-02-26T10:56:41.966Z,10.00
2019-02-26T10:59:23.453Z,10.20
2019-02-26T11:02:03.328Z,10.20
2019-02-26T11:04:46.746Z,10.30
2019-02-26T11:07:28.831Z,10.20
2019-02-26T11:10:11.958Z,10.20
2019-02-26T11:12:56.293Z,10.30
2019-02-26T11:15:39.323Z,10.60
2019-02-26T11:18:23.399Z,10.90
2019-02-26T11:21:03.670Z,10.90
2019-02-26T11:23:46.457Z,11.00
2019-02-26T11:26:27.625Z,11.00
2019-02-26T11:29:08.692Z,10.80
2019-02-26T11:31:49.741Z,10.90
2019-02-26T11:34:33.344Z,11.10
2019-02-26T11:37:13.848Z,10.80
2019-02-26T11:39:55.188Z,10.70
2019-02-26T11:42:36.966Z,10.70
2019-02-26T11:45:19.337Z,10.90
2019-02-26T11:48:03.685Z,10.90
2019-02-26T11:50:45.799Z,10.70
2019-02-26T11:53:29.598Z,10.90
2019-02-26T11:56:09.035Z,10.90
2019-02-26T11:58:50.643Z,11.20
2019-02-26T12:01:32.221Z,12.30
2019-02-26T12:04:17.960Z,13.10
2019-02-26T12:07:01.026Z,13.10
2019-02-26T12:09:43.335Z,12.60
2019-02-26T12:12:25.736Z,12.60
2019-02-26T12:15:11.947Z,11.90
2019-02-26T12:17:52.273Z,12.20
2019-02-26T12:20:35.595Z,12.00
2019-02-26T12:23:19.912Z,11.90
2019-02-26T12:26:02.071Z,11.60
2019-02-26T12:31:16.862Z,11.90
2019-02-26T12:37:02.667Z,11.70
2019-02-26T12:39:55.540Z,11.90
2019-02-26T12:42:44.611Z,11.60
2019-02-26T12:45:38.694Z,11.70
2019-02-26T12:48:46.947Z,11.70
2019-02-26T12:51:47.588Z,11.90
2019-02-26T12:57:26.329Z,12.10
2019-02-26T13:00:37.571Z,12.20
2019-02-26T13:03:24.736Z,12.30
2019-02-26T13:06:16.597Z,12.20
2019-02-26T13:09:04.076Z,12.30
2019-02-26T13:14:42.165Z,12.40
2019-02-26T13:17:32.353Z,12.70
2019-02-26T13:20:05.518Z,12.60
2019-02-26T13:22:45.747Z,12.60
2019-02-26T13:27:58.581Z,12.50
2019-02-26T13:30:46.863Z,12.20
2019-02-26T13:33:37.759Z,12.20
2019-02-26T13:36:25.097Z,12.10
2019-02-26T13:39:21.906Z,12.00
2019-02-26T13:42:05.555Z,11.90
2019-02-26T13:44:53.239Z,11.90
2019-02-26T13:47:41.594Z,11.80
2019-02-26T13:50:30.036Z,11.50
2019-02-26T13:53:18.331Z,11.60
2019-02-26T13:56:06.470Z,11.60
2019-02-26T13:58:54.820Z,11.60
2019-02-26T14:01:43.035Z,11.60
2019-02-26T14:04:31.499Z,11.70
2019-02-26T14:07:19.868Z,11.80
2019-02-26T14:10:09.017Z,11.90
2019-02-26T14:12:38.093Z,11.90
2019-02-26T14:15:15.385Z,11.90
2019-02-26T14:17:58.682Z,11.90
2019-02-26T14:20:28.003Z,11.90
2019-02-26T14:22:57.311Z,11.80
2019-02-26T14:25:26.470Z,11.60
2019-02-26T14:28:14.785Z,11.60
2019-02-26T14:30:43.797Z,11.60
2019-02-26T14:33:12.803Z,11.60
2019-02-26T14:35:41.897Z,11.60
2019-02-26T14:38:30.145Z,11.50
2019-02-26T14:41:00.110Z,11.60
2019-02-26T14:43:49.155Z,11.60
2019-02-26T14:46:37.458Z,11.60
2019-02-26T14:49:25.646Z,11.80
2019-02-26T14:52:14.011Z,11.90
2019-02-26T14:55:02.390Z,12.00
2019-02-26T14:57:50.592Z,11.90
2019-02-26T15:00:39.006Z,12.00
2019-02-26T15:03:27.137Z,12.00
2019-02-26T15:06:15.674Z,12.10
2019-02-26T15:09:06.172Z,12.00
2019-02-26T15:11:56.411Z,12.00
2019-02-26T15:14:45.041Z,12.00
2019-02-26T15:17:33.432Z,12.00
2019-02-26T15:20:21.724Z,12.00
2019-02-26T15:23:10.010Z,11.80
2019-02-26T15:25:50.780Z,11.80
2019-02-26T15:28:31.371Z,11.80
2019-02-26T15:31:12.076Z,11.70
2019-02-26T15:33:55.819Z,11.60
2019-02-26T15:36:37.252Z,11.50
2019-02-26T15:42:00.748Z,11.50
2019-02-26T15:44:42.496Z,11.60
2019-02-26T15:47:23.877Z,11.70
2019-02-26T15:50:06.718Z,11.60
2019-02-26T15:52:52.554Z,11.60
2019-02-26T15:55:30.984Z,11.50
2019-02-26T16:01:12.835Z,11.40
2019-02-26T16:03:52.947Z,11.30
2019-02-26T16:06:34.255Z,11.30
2019-02-26T16:09:15.482Z,11.20
2019-02-26T16:11:58.938Z,11.10
2019-02-26T16:14:40.283Z,11.20
2019-02-26T16:20:03.802Z,11.30
2019-02-26T16:22:45.014Z,11.20
2019-02-26T16:25:25.867Z,11.30
2019-02-26T16:28:07.201Z,11.20
2019-02-26T16:30:37.653Z,11.20
2019-02-26T16:33:25.967Z,11.20
2019-02-26T16:35:57.440Z,11.10
2019-02-26T16:38:25.917Z,11.00
2019-02-26T16:40:54.837Z,10.90
2019-02-26T16:43:23.740Z,10.90
2019-02-26T16:45:52.738Z,10.70
2019-02-26T16:48:22.184Z,10.60
2019-02-26T16:50:51.423Z,10.50
2019-02-26T16:53:23.703Z,10.50
2019-02-26T16:55:52.785Z,10.30
2019-02-26T16:58:36.284Z,10.30
2019-02-26T17:03:54.473Z,10.10
2019-02-26T17:06:30.887Z,10.20
2019-02-26T17:09:02.960Z,10.20
2019-02-26T17:11:31.945Z,10.30
2019-02-26T17:14:26.637Z,10.20
2019-02-26T17:16:56.044Z,10.10
2019-02-26T17:19:25.375Z,10.00
2019-02-26T17:21:54.615Z,10.00
2019-02-26T17:24:24.417Z,9.90
2019-02-26T17:26:53.360Z,9.90
2019-02-26T17:29:22.368Z,9.90
2019-02-26T17:31:51.553Z,9.80
2019-02-26T17:34:23.418Z,9.70
2019-02-26T17:36:51.133Z,9.80
2019-02-26T17:39:20.269Z,9.80
2019-02-26T17:41:54.210Z,9.80
2019-02-26T17:44:23.240Z,9.80
2019-02-26T17:46:52.168Z,9.70
2019-02-26T17:49:21.118Z,9.70
2019-02-26T17:51:50.085Z,9.80
2019-02-26T17:54:19.516Z,9.70
2019-02-26T17:56:48.452Z,9.70
2019-02-26T17:59:17.393Z,9.70
2019-02-26T18:01:46.372Z,9.60
2019-02-26T18:04:15.216Z,9.60
2019-02-26T18:06:44.293Z,9.60
2019-02-26T18:09:13.681Z,9.50
2019-02-26T18:11:42.557Z,9.40
2019-02-26T18:14:11.650Z,9.30
2019-02-26T18:16:41.666Z,9.20
2019-02-26T18:19:12.398Z,9.20
2019-02-26T18:21:43.237Z,9.10
2019-02-26T18:24:11.960Z,9.00
2019-02-26T19:18:54.540Z,7.80
2019-02-26T19:21:23.650Z,7.80
2019-02-26T19:23:52.995Z,7.70
2019-02-26T19:26:21.932Z,7.60
2019-02-26T19:28:50.932Z,7.50
2019-02-26T19:31:19.872Z,7.40
2019-02-26T19:33:48.724Z,7.40
2019-02-26T19:36:17.614Z,7.40
2019-02-26T19:38:46.492Z,7.30
2019-02-26T19:41:15.761Z,7.30
2019-02-26T19:43:44.774Z,7.20
2019-02-26T19:46:16.866Z,7.20
2019-02-26T19:48:44.418Z,7.00
2019-02-26T19:51:13.339Z,6.90
2019-02-26T19:53:42.294Z,7.00
2019-02-26T19:56:11.636Z,7.00
2019-02-26T19:58:40.993Z,6.90
2019-02-26T20:01:10.574Z,7.00
2019-02-26T20:03:40.255Z,6.90
2019-02-26T20:06:09.890Z,6.80
2019-02-26T20:08:38.922Z,6.80
2019-02-26T20:11:07.849Z,6.80
2019-02-26T20:13:41.901Z,6.70
2019-02-26T20:16:07.510Z,6.70
2019-02-26T20:18:36.499Z,6.70
2019-02-26T20:21:05.694Z,6.70
2019-02-26T20:23:34.514Z,6.70
2019-02-26T20:26:03.482Z,6.70
2019-02-26T20:45:56.094Z,6.60
2019-02-26T20:48:25.003Z,6.50
2019-02-26T20:50:55.915Z,6.40
2019-02-26T20:53:24.656Z,6.30
2019-02-26T20:55:57.484Z,6.20
2019-02-26T20:58:24.381Z,6.20
2019-02-26T21:00:53.363Z,6.20
2019-02-26T21:03:22.429Z,6.30
2019-02-26T21:05:52.103Z,6.30
2019-02-26T21:08:21.063Z,6.40
2019-02-26T21:10:50.147Z,6.30
2019-02-26T21:13:19.184Z,6.30
2019-02-26T21:15:48.214Z,6.20
2019-02-26T21:18:17.303Z,6.20
2019-02-26T21:20:46.498Z,6.10
2019-02-26T21:23:15.431Z,6.10
2019-02-26T21:25:47.401Z,6.10
2019-02-26T21:28:15.067Z,6.10
2019-02-26T21:30:45.815Z,6.00
2019-02-26T21:33:15.479Z,6.00
2019-02-26T21:35:44.388Z,6.00
2019-02-26T21:38:13.445Z,6.00
2019-02-26T21:40:42.454Z,6.00
2019-02-26T21:43:12.403Z,6.00
2019-02-26T21:45:41.711Z,6.00
2019-02-26T21:48:12.107Z,5.90
2019-02-26T21:50:41.215Z,5.90
2019-02-26T21:53:10.193Z,5.80
2019-02-26T21:55:44.298Z,5.80
2019-02-26T21:58:09.917Z,5.70
2019-02-26T22:00:39.813Z,5.60
2019-02-26T22:03:08.752Z,5.60
2019-02-26T22:05:38.398Z,5.70
2019-02-26T22:13:04.599Z,5.60
2019-02-26T22:18:02.514Z,5.50
2019-02-26T22:20:36.114Z,5.50
2019-02-26T22:23:02.143Z,5.40
2019-02-26T22:25:31.019Z,5.50
2019-02-26T22:27:59.901Z,5.40
2019-02-26T22:30:28.829Z,5.40
2019-02-26T22:32:57.799Z,5.50
2019-02-26T22:35:26.672Z,5.40
2019-02-26T22:37:55.643Z,5.40
2019-02-26T22:40:28.860Z,5.40
2019-02-26T22:42:55.261Z,5.20
2019-02-26T22:45:27.697Z,5.20
2019-02-26T22:47:54.872Z,5.20
2019-02-26T22:50:24.874Z,5.10
2019-02-26T22:52:54.555Z,5.20
2019-02-26T22:55:23.564Z,5.20
2019-02-26T22:57:52.623Z,5.20
2019-02-26T23:00:49.405Z,5.10
2019-02-26T23:03:16.727Z,4.90
2019-02-26T23:05:45.721Z,5.10
2019-02-26T23:08:14.722Z,5.10
2019-02-26T23:10:44.123Z,5.10
2019-02-26T23:13:13.481Z,5.00
2019-02-26T23:15:45.122Z,4.90
2019-02-26T23:18:13.424Z,4.80
2019-02-26T23:20:43.287Z,4.90
2019-02-26T23:23:12.481Z,4.90
2019-02-26T23:39:18.880Z,4.60
2019-02-26T23:42:09.866Z,4.60
2019-02-26T23:44:51.704Z,4.60
2019-02-26T23:50:50.014Z,4.50
